CET,Max TemperatureF,Mean TemperatureF,Min TemperatureF,Max Dew PointF,MeanDew PointF,Min DewpointF,Max Humidity, Mean Humidity, Min Humidity, Max Sea Level PressureIn, Mean Sea Level PressureIn, Min Sea Level PressureIn, Max VisibilityMiles, Mean VisibilityMiles, Min VisibilityMiles, Max Wind SpeedMPH, Mean Wind SpeedMPH, Max Gust SpeedMPH,PrecipitationIn, CloudCover, Events, WindDirDegrees
2011-11-1,46,42,39,43,41,39,100,91,81,30.09,30.07,30.06,4,2,0,13,6,,0.00,8,Fog,163
2011-11-2,46,42,37,45,39,36,100,94,93,30.09,30.04,29.95,6,1,0,10,3,,0.00,7,Fog,149
2011-11-3,46,40,35,43,37,34,100,91,76,29.95,29.86,29.77,6,2,0,10,8,,0.00,7,Fog,144
2011-11-4,50,44,37,41,38,34,93,88,71,29.83,29.79,29.77,6,4,1,13,8,,0.00,6,,139
2011-11-5,48,42,37,41,39,36,100,88,76,29.89,29.82,29.77,6,3,1,13,8,,0.00,6,,136
2011-11-6,48,45,42,45,43,39,93,89,82,30.01,29.94,29.89,4,2,1,14,9,,0.00,7,,118
2011-11-7,53,46,39,41,38,36,93,77,54,30.09,30.05,30.01,6,4,2,17,8,,0.00,4,,93
2011-11-8,48,44,39,41,39,37,93,86,76,30.12,30.11,30.09,5,4,2,13,9,,0.00,6,,125
2011-11-9,48,44,39,43,39,37,100,91,76,30.21,30.18,30.12,5,2,0,10,8,,0.00,7,Fog,133
2011-11-10,42,40,37,41,38,34,100,92,81,30.24,30.21,30.18,4,2,0,12,6,,0.00,8,Fog,102
2011-11-11,37,32,28,32,28,25,93,83,75,30.36,30.30,30.24,6,4,3,13,8,,0.00,6,,106
2011-11-12,39,32,26,30,27,25,93,85,70,30.54,30.47,30.36,6,4,2,10,7,,0.00,6,,149
2011-11-13,48,38,28,28,27,25,93,70,43,30.54,30.50,30.42,6,5,3,7,4,,0.00,,,160
2011-11-14,48,39,30,30,27,23,87,68,46,30.42,30.32,30.21,6,6,6,6,2,,0.00,,,185
2011-11-15,42,33,24,32,27,25,100,90,65,30.21,30.19,30.15,6,2,0,8,3,,0.00,5,Fog-Snow,23
2011-11-16,35,30,24,34,26,23,100,93,86,30.21,30.18,30.18,5,1,0,13,5,,0.00,7,Fog-Snow,51
2011-11-17,35,30,26,34,29,25,100,93,86,30.24,30.19,30.15,2,1,0,16,10,,0.00,8,Fog,205
2011-11-18,42,38,33,41,37,32,100,94,87,30.27,30.23,30.21,4,1,0,9,5,,0.00,7,Fog,193
2011-11-19,44,38,33,39,36,32,100,91,76,30.21,30.19,30.18,6,3,0,10,3,,0.00,6,Fog,158
2011-11-20,39,36,33,36,34,32,93,91,81,30.21,30.18,30.15,6,3,2,8,6,,0.00,7,Rain,155
2011-11-21,51,42,33,39,34,32,93,81,54,30.12,30.09,30.06,6,4,2,10,5,,0.00,7,,186
2011-11-22,46,37,28,37,32,27,100,87,66,30.21,30.12,30.06,6,2,0,5,3,,0.00,1,Fog,174
2011-11-23,48,37,26,37,29,25,100,89,66,30.42,30.31,30.21,6,3,0,6,2,,0.00,1,Fog,173
2011-11-24,35,30,24,32,27,23,100,93,87,30.51,30.47,30.42,6,2,0,9,6,,0.00,7,Fog,183
2011-11-25,33,28,24,32,26,23,100,93,81,30.42,30.32,30.27,6,3,0,18,7,,0.00,7,Fog,195
2011-11-26,37,34,30,36,33,28,100,93,87,30.42,30.36,30.24,5,3,0,17,11,,0.00,8,Fog,222
2011-11-27,42,38,35,37,34,32,93,83,66,30.24,30.14,30.04,6,6,3,26,19,38,0.00,7,,226
2011-11-28,42,36,30,36,31,25,93,80,61,30.39,30.32,30.27,6,6,6,12,7,,0.00,4,,224
2011-11-29,37,32,26,32,29,25,100,90,75,30.24,30.15,30.09,6,4,0,17,6,,0.00,6,Fog,184
2011-11-30,41,36,32,39,35,30,100,92,81,30.36,30.27,30.12,6,2,0,20,10,,0.00,7,Fog-Rain-Snow,213